createdAt,value
2019-04-16T00:02:18.530Z,8.19
2019-04-16T00:05:00.480Z,8.13
2019-04-16T00:07:45.294Z,8.02
2019-04-16T00:10:38.093Z,7.89
2019-04-16T00:13:27.062Z,7.87
2019-04-16T00:16:00.105Z,7.91
2019-04-16T00:18:30.417Z,7.91
2019-04-16T00:21:17.181Z,7.84
2019-04-16T00:24:19.578Z,7.77
2019-04-16T00:26:58.042Z,7.73
2019-04-16T00:29:32.588Z,7.71
2019-04-16T00:32:07.817Z,7.68
2019-04-16T00:34:36.502Z,7.75
2019-04-16T00:37:07.116Z,7.72
2019-04-16T00:39:38.006Z,7.66
2019-04-16T00:42:08.605Z,7.50
2019-04-16T00:44:39.681Z,7.50
2019-04-16T00:47:11.048Z,7.48
2019-04-16T00:49:41.764Z,7.44
2019-04-16T00:52:12.317Z,7.39
2019-04-16T00:54:45.964Z,7.35
2019-04-16T00:57:17.741Z,7.32
2019-04-16T00:59:46.998Z,7.35
2019-04-16T01:02:17.309Z,7.36
2019-04-16T01:04:48.691Z,7.35
2019-04-16T01:07:19.147Z,7.25
2019-04-16T01:09:50.801Z,7.20
2019-04-16T01:12:21.170Z,7.20
2019-04-16T01:14:52.075Z,7.21
2019-04-16T01:17:22.412Z,7.18
2019-04-16T01:19:52.715Z,7.16
2019-04-16T01:22:23.051Z,7.09
2019-04-16T01:24:53.727Z,7.12
2019-04-16T01:27:32.461Z,7.09
2019-04-16T01:30:06.171Z,7.04
2019-04-16T01:33:00.372Z,7.02
2019-04-16T01:35:55.978Z,6.98
2019-04-16T01:39:07.490Z,6.95
2019-04-16T01:41:26.616Z,6.92
2019-04-16T01:43:57.288Z,6.84
2019-04-16T01:46:32.565Z,6.72
2019-04-16T01:49:00.568Z,6.72
2019-04-16T01:51:30.872Z,6.76
2019-04-16T01:54:01.414Z,6.72
2019-04-16T01:56:34.045Z,6.71
2019-04-16T01:59:05.770Z,6.76
2019-04-16T02:01:40.344Z,6.71
2019-04-16T02:04:09.928Z,6.73
2019-04-16T02:06:40.882Z,6.67
2019-04-16T02:09:21.780Z,6.61
2019-04-16T02:11:45.222Z,6.65
2019-04-16T02:14:18.465Z,6.62
2019-04-16T02:16:48.774Z,6.62
2019-04-16T02:19:19.083Z,6.60
2019-04-16T02:21:49.638Z,6.59
2019-04-16T02:24:19.910Z,6.50
2019-04-16T02:26:54.558Z,6.47
2019-04-16T02:29:23.985Z,6.54
2019-04-16T02:31:55.874Z,6.58
2019-04-16T02:34:26.384Z,6.53
2019-04-16T02:37:00.757Z,6.55
2019-04-16T02:39:47.267Z,6.62
2019-04-16T02:42:01.237Z,6.57
2019-04-16T02:44:32.783Z,6.56
2019-04-16T02:47:06.259Z,6.48
2019-04-16T02:49:35.082Z,6.48
2019-04-16T02:52:24.323Z,6.42
2019-04-16T02:55:14.548Z,6.39
2019-04-16T02:58:13.942Z,6.32
2019-04-16T03:00:57.619Z,6.29
2019-04-16T03:03:33.369Z,6.30
2019-04-16T03:06:03.681Z,6.32
2019-04-16T03:08:36.025Z,6.31
2019-04-16T03:11:07.085Z,6.33
2019-04-16T03:13:38.859Z,6.29
2019-04-16T03:16:27.166Z,6.29
2019-04-16T03:19:02.184Z,6.24
2019-04-16T03:21:32.440Z,6.28
2019-04-16T03:24:09.304Z,6.24
2019-04-16T03:26:39.246Z,6.20
2019-04-16T03:29:09.854Z,6.17
2019-04-16T03:31:40.145Z,6.17
2019-04-16T03:34:10.843Z,6.11
2019-04-16T03:36:42.574Z,6.11
2019-04-16T03:39:13.915Z,6.11
2019-04-16T03:41:44.644Z,6.07
2019-04-16T03:44:15.032Z,6.11
2019-04-16T03:46:46.943Z,6.04
2019-04-16T03:49:18.001Z,6.04
2019-04-16T03:51:49.545Z,6.04
2019-04-16T03:54:22.416Z,5.90
2019-04-16T03:56:52.285Z,5.83
2019-04-16T03:59:22.578Z,5.81
2019-04-16T04:01:52.853Z,5.75
2019-04-16T04:04:23.497Z,5.78
2019-04-16T04:06:53.807Z,5.77
2019-04-16T04:09:24.415Z,5.70
2019-04-16T04:11:54.716Z,5.76
2019-04-16T04:14:28.858Z,5.70
2019-04-16T04:16:59.447Z,5.70
2019-04-16T04:19:30.081Z,5.67
2019-04-16T04:22:00.672Z,5.63
2019-04-16T04:24:31.607Z,5.64
2019-04-16T04:27:02.499Z,5.69
2019-04-16T04:29:32.782Z,5.68
2019-04-16T04:32:04.146Z,5.70
2019-04-16T04:34:34.811Z,5.57
2019-04-16T04:37:05.078Z,5.63
2019-04-16T04:39:35.706Z,5.65
2019-04-16T04:42:06.011Z,5.58
2019-04-16T04:44:37.151Z,5.56
2019-04-16T04:47:07.953Z,5.56
2019-04-16T04:49:38.389Z,5.66
2019-04-16T04:52:13.641Z,5.67
2019-04-16T04:54:40.940Z,5.65
2019-04-16T04:57:13.023Z,5.66
2019-04-16T04:59:43.530Z,5.64
2019-04-16T05:02:15.320Z,5.65
2019-04-16T05:04:54.892Z,5.70
2019-04-16T05:07:28.183Z,5.74
2019-04-16T05:09:57.751Z,5.74
2019-04-16T05:12:28.291Z,5.77
2019-04-16T05:14:58.956Z,5.83
2019-04-16T05:17:30.694Z,5.92
2019-04-16T05:20:01.079Z,6.04
2019-04-16T05:22:33.076Z,6.08
2019-04-16T05:25:07.693Z,6.22
2019-04-16T05:27:41.068Z,6.61
2019-04-16T05:30:12.457Z,6.97
2019-04-16T05:32:43.979Z,6.99
2019-04-16T05:35:14.303Z,6.89
2019-04-16T05:37:48.507Z,6.83
2019-04-16T05:40:18.664Z,6.81
2019-04-16T05:42:52.465Z,6.89
2019-04-16T05:45:21.661Z,7.11
2019-04-16T05:47:54.946Z,7.19
2019-04-16T05:50:28.771Z,7.26
2019-04-16T05:52:58.540Z,7.49
2019-04-16T05:55:37.270Z,8.01
2019-04-16T05:58:08.271Z,8.18
2019-04-16T06:01:03.341Z,8.06
2019-04-16T06:03:33.803Z,8.14
2019-04-16T06:06:06.061Z,8.31
2019-04-16T06:08:40.785Z,8.31
2019-04-16T06:11:10.235Z,8.42
2019-04-16T06:13:58.145Z,8.58
2019-04-16T06:16:48.652Z,8.94
2019-04-16T06:19:30.514Z,9.20
2019-04-16T06:22:14.389Z,9.47
2019-04-16T06:25:09.335Z,9.79
2019-04-16T06:27:56.436Z,10.32
2019-04-16T06:30:56.258Z,11.85
2019-04-16T06:33:39.036Z,11.66
2019-04-16T06:36:40.385Z,11.36
2019-04-16T06:39:15.590Z,10.85
2019-04-16T06:42:03.613Z,12.34
2019-04-16T06:44:36.387Z,13.55
2019-04-16T06:47:16.648Z,13.99
2019-04-16T06:50:07.317Z,13.13
2019-04-16T06:52:54.730Z,13.13
2019-04-16T06:55:35.003Z,13.16
2019-04-16T06:58:27.733Z,14.15
2019-04-16T07:01:22.295Z,14.27
2019-04-16T07:04:06.773Z,13.92
2019-04-16T07:06:58.454Z,13.87
2019-04-16T07:09:41.468Z,14.83
2019-04-16T07:12:21.388Z,14.94
2019-04-16T07:14:52.707Z,16.28
2019-04-16T07:17:23.013Z,16.85
2019-04-16T07:19:53.627Z,18.56
2019-04-16T07:22:23.992Z,19.52
2019-04-16T07:25:03.890Z,18.81
2019-04-16T07:27:40.511Z,19.60
2019-04-16T07:30:21.400Z,20.79
2019-04-16T07:33:00.963Z,22.11
2019-04-16T07:36:09.291Z,22.14
2019-04-16T07:38:45.590Z,23.68
2019-04-16T07:41:42.787Z,25.71
2019-04-16T07:44:17.579Z,26.03
2019-04-16T07:47:19.639Z,25.92
2019-04-16T07:50:01.611Z,25.42
2019-04-16T07:52:48.578Z,25.85
2019-04-16T07:55:44.309Z,26.47
2019-04-16T07:58:14.995Z,26.64
2019-04-16T08:00:46.416Z,26.60
2019-04-16T08:03:19.968Z,25.07
2019-04-16T08:05:50.679Z,25.69
2019-04-16T08:08:24.414Z,26.69
2019-04-16T08:10:55.235Z,25.92
2019-04-16T08:13:27.208Z,27.82
2019-04-16T08:15:57.892Z,27.23
2019-04-16T08:18:28.197Z,27.67
2019-04-16T08:21:01.969Z,27.67
2019-04-16T08:23:41.358Z,28.87
2019-04-16T08:26:13.792Z,29.43
2019-04-16T08:28:44.219Z,30.49
2019-04-16T08:31:20.110Z,30.25
2019-04-16T08:33:50.851Z,28.52
2019-04-16T08:36:21.541Z,28.09
2019-04-16T08:38:52.142Z,28.26
2019-04-16T08:41:23.264Z,27.70
2019-04-16T08:43:54.018Z,30.07
2019-04-16T08:46:24.613Z,29.14
2019-04-16T08:48:55.244Z,30.10
2019-04-16T08:51:30.734Z,30.01
2019-04-16T08:53:58.014Z,30.59
2019-04-16T08:56:28.630Z,32.37
2019-04-16T08:59:01.311Z,32.15
2019-04-16T09:01:33.408Z,30.47
2019-04-16T09:04:04.967Z,29.65
2019-04-16T09:06:35.575Z,31.46
2019-04-16T09:09:40.507Z,28.58
2019-04-16T09:12:11.175Z,30.11
2019-04-16T09:14:45.758Z,31.66
2019-04-16T09:17:22.748Z,32.17
2019-04-16T09:19:57.986Z,32.22
2019-04-16T09:22:28.654Z,31.09
2019-04-16T09:25:04.020Z,30.42
2019-04-16T09:27:37.059Z,31.36
2019-04-16T09:30:40.127Z,32.47
2019-04-16T09:33:23.352Z,33.47
2019-04-16T09:36:21.761Z,31.78
2019-04-16T09:38:56.835Z,32.61
2019-04-16T09:41:30.746Z,33.72
2019-04-16T09:44:02.046Z,33.72
2019-04-16T09:46:50.330Z,32.56
2019-04-16T09:49:11.129Z,33.55
2019-04-16T09:51:50.390Z,34.43
2019-04-16T09:54:20.562Z,34.30
2019-04-16T09:56:51.174Z,33.80
2019-04-16T09:59:44.758Z,33.09
2019-04-16T10:02:25.670Z,32.36
2019-04-16T10:04:57.452Z,30.74
2019-04-16T10:07:28.135Z,30.96
2019-04-16T10:09:58.792Z,31.07
2019-04-16T10:12:29.471Z,32.37
2019-04-16T10:15:00.129Z,33.14
2019-04-16T10:17:30.736Z,33.19
2019-04-16T10:20:01.092Z,35.08
2019-04-16T10:22:31.637Z,35.89
2019-04-16T10:25:12.769Z,37.11
2019-04-16T10:27:46.030Z,35.03
2019-04-16T10:30:40.834Z,32.76
2019-04-16T10:33:12.678Z,31.76
2019-04-16T10:35:43.369Z,33.22
2019-04-16T10:38:35.463Z,31.80
2019-04-16T10:41:19.155Z,32.76
2019-04-16T10:44:11.945Z,31.39
2019-04-16T10:47:00.491Z,31.85
2019-04-16T10:49:37.435Z,32.74
2019-04-16T10:52:25.995Z,32.20
2019-04-16T10:55:09.367Z,30.61
2019-04-16T10:57:57.544Z,29.66
2019-04-16T11:00:38.835Z,29.90
2019-04-16T11:03:14.456Z,29.83
2019-04-16T11:06:00.228Z,29.84
2019-04-16T11:08:30.923Z,28.84
2019-04-16T11:11:01.686Z,29.41
2019-04-16T11:13:42.504Z,29.26
2019-04-16T11:16:17.444Z,28.40
2019-04-16T11:18:48.243Z,28.16
2019-04-16T11:21:18.969Z,27.72
2019-04-16T11:23:49.825Z,25.42
2019-04-16T11:26:20.414Z,23.04
2019-04-16T11:28:51.562Z,21.55
2019-04-16T11:31:23.454Z,21.02
2019-04-16T11:33:54.382Z,20.82
2019-04-16T11:36:25.089Z,20.82
2019-04-16T11:38:55.783Z,21.04
2019-04-16T11:41:26.280Z,21.33
2019-04-16T11:43:56.922Z,21.40
2019-04-16T11:46:27.382Z,21.30
2019-04-16T11:48:58.042Z,21.30
2019-04-16T11:51:28.819Z,21.40
2019-04-16T11:53:59.351Z,21.52
2019-04-16T11:56:30.065Z,21.24
2019-04-16T11:59:00.338Z,20.85
2019-04-16T12:02:07.522Z,20.84
2019-04-16T12:04:59.194Z,21.07
2019-04-16T12:07:49.249Z,21.20
2019-04-16T12:10:38.792Z,21.14
2019-04-16T12:13:43.603Z,21.20
2019-04-16T12:16:34.732Z,21.27
2019-04-16T12:19:23.527Z,21.27
2019-04-16T12:22:18.599Z,21.30
2019-04-16T12:24:55.569Z,21.23
2019-04-16T12:27:44.083Z,21.00
2019-04-16T12:30:34.142Z,21.17
2019-04-16T12:33:14.776Z,21.17
2019-04-16T12:36:04.720Z,21.04
2019-04-16T12:38:39.290Z,20.99
2019-04-16T12:41:31.974Z,21.08
2019-04-16T12:44:23.935Z,21.19
2019-04-16T12:47:07.527Z,20.93
2019-04-16T12:50:09.390Z,21.00
2019-04-16T12:52:59.050Z,21.02
2019-04-16T12:55:51.787Z,21.16
2019-04-16T12:58:59.863Z,21.43
2019-04-16T13:01:55.092Z,21.35
2019-04-16T13:04:48.758Z,21.11
2019-04-16T13:07:29.813Z,21.03
2019-04-16T13:10:14.574Z,21.17
2019-04-16T13:13:04.447Z,21.11
2019-04-16T13:15:55.070Z,21.21
2019-04-16T13:18:33.340Z,21.17
2019-04-16T13:21:19.110Z,21.19
2019-04-16T13:24:11.561Z,21.22
2019-04-16T13:26:49.393Z,21.22
2019-04-16T13:29:22.249Z,21.34
2019-04-16T13:31:52.902Z,21.51
2019-04-16T13:34:23.467Z,21.30
2019-04-16T13:36:59.351Z,21.14
2019-04-16T13:39:30.672Z,21.19
2019-04-16T13:42:01.023Z,21.43
2019-04-16T13:44:37.740Z,21.55
2019-04-16T13:47:07.896Z,21.40
2019-04-16T13:49:49.469Z,21.30
2019-04-16T13:52:23.278Z,21.38
2019-04-16T13:55:17.334Z,21.27
2019-04-16T13:57:57.035Z,21.34
2019-04-16T14:00:38.981Z,21.29
2019-04-16T14:03:12.400Z,21.30
2019-04-16T14:05:43.619Z,21.20
2019-04-16T14:08:14.301Z,21.09
2019-04-16T14:10:44.965Z,21.23
2019-04-16T14:13:15.623Z,21.15
2019-04-16T14:15:46.213Z,21.16
2019-04-16T14:18:21.560Z,21.10
2019-04-16T14:20:50.177Z,21.16
2019-04-16T14:23:20.806Z,21.32
2019-04-16T14:25:51.399Z,21.32
2019-04-16T14:28:21.791Z,21.27
2019-04-16T14:30:52.092Z,21.25
2019-04-16T14:33:32.315Z,21.04
2019-04-16T14:36:02.958Z,20.77
2019-04-16T14:38:39.360Z,20.77
2019-04-16T14:41:11.884Z,20.99
2019-04-16T14:43:46.441Z,21.14
2019-04-16T14:46:17.068Z,20.96
2019-04-16T14:48:47.831Z,21.09
2019-04-16T14:51:18.154Z,21.25
2019-04-16T14:53:56.949Z,21.36
2019-04-16T14:56:34.513Z,21.48
2019-04-16T14:59:34.024Z,21.52
2019-04-16T15:02:08.497Z,21.52
2019-04-16T15:04:58.370Z,21.54
2019-04-16T15:07:36.321Z,21.51
2019-04-16T15:10:39.332Z,21.35
2019-04-16T15:13:30.865Z,21.50
2019-04-16T15:16:26.556Z,21.55
2019-04-16T15:19:14.948Z,21.52
2019-04-16T15:22:03.016Z,21.49
2019-04-16T15:24:59.683Z,21.49
2019-04-16T15:27:55.890Z,21.61
2019-04-16T15:31:04.968Z,21.74
2019-04-16T15:33:55.769Z,21.67
2019-04-16T15:36:31.105Z,21.69
2019-04-16T15:40:26.119Z,21.77
2019-04-16T15:43:13.386Z,21.76
2019-04-16T15:46:26.885Z,21.71
2019-04-16T15:49:10.648Z,21.82
2019-04-16T15:52:45.901Z,21.97
2019-04-16T15:55:13.382Z,21.77
2019-04-16T15:58:09.681Z,21.54
2019-04-16T16:00:48.043Z,21.44
2019-04-16T16:04:11.130Z,21.32
2019-04-16T16:06:52.388Z,21.22
2019-04-16T16:09:28.484Z,21.19
2019-04-16T16:12:10.074Z,21.22
2019-04-16T16:14:40.368Z,21.14
2019-04-16T16:17:13.813Z,20.99
2019-04-16T16:19:44.875Z,20.84
2019-04-16T16:22:19.445Z,20.62
2019-04-16T16:24:50.732Z,20.62
2019-04-16T16:27:22.634Z,20.48
2019-04-16T16:29:53.607Z,20.46
2019-04-16T16:32:26.530Z,20.48
2019-04-16T16:34:57.493Z,20.48
2019-04-16T16:37:29.639Z,20.29
2019-04-16T16:40:00.943Z,20.20
2019-04-16T16:42:34.884Z,20.19
2019-04-16T16:45:06.302Z,20.12
2019-04-16T16:47:40.358Z,20.08
2019-04-16T16:50:15.063Z,19.99
2019-04-16T16:53:07.321Z,19.95
2019-04-16T16:55:47.216Z,19.91
2019-04-16T16:58:39.739Z,19.87
2019-04-16T17:01:33.591Z,19.80
2019-04-16T17:04:15.894Z,19.75
2019-04-16T17:06:47.442Z,19.65
2019-04-16T17:09:35.297Z,19.55
2019-04-16T17:12:05.973Z,19.46
2019-04-16T17:14:38.029Z,19.35
2019-04-16T17:17:14.695Z,19.03
2019-04-16T17:19:52.483Z,18.26
2019-04-16T17:22:35.894Z,17.40
2019-04-16T17:25:04.148Z,16.89
2019-04-16T17:30:53.519Z,16.60
2019-04-16T17:33:30.637Z,16.55
2019-04-16T17:36:08.654Z,16.56
2019-04-16T17:38:41.797Z,16.58
2019-04-16T17:41:19.684Z,16.53
2019-04-16T17:44:07.303Z,16.53
2019-04-16T17:47:00.430Z,16.59
2019-04-16T17:53:24.079Z,16.54
2019-04-16T17:56:22.714Z,16.54
2019-04-16T17:59:29.452Z,16.48
2019-04-16T18:02:28.022Z,16.48
2019-04-16T18:05:25.508Z,16.42
2019-04-16T18:08:25.175Z,16.37
2019-04-16T18:11:22.635Z,16.28
2019-04-16T18:14:10.735Z,16.19
2019-04-16T18:16:43.043Z,16.09
2019-04-16T18:19:56.426Z,16.02
2019-04-16T18:23:00.680Z,15.99
2019-04-16T18:26:07.799Z,15.90
2019-04-16T18:28:54.935Z,15.85
2019-04-16T18:32:27.683Z,15.79
2019-04-16T18:35:21.792Z,15.78
2019-04-16T18:38:15.433Z,15.73
2019-04-16T18:41:04.656Z,15.71
2019-04-16T18:44:10.114Z,15.67
2019-04-16T18:47:36.620Z,15.65
2019-04-16T18:50:12.157Z,15.62
2019-04-16T18:52:43.514Z,15.62
2019-04-16T18:55:17.484Z,15.60
2019-04-16T19:00:50.862Z,15.36
2019-04-16T19:03:29.621Z,15.09
2019-04-16T19:06:01.952Z,14.86
2019-04-16T19:08:44.988Z,14.78
2019-04-16T19:11:47.383Z,14.74
2019-04-16T19:14:17.976Z,14.68
2019-04-16T19:17:00.606Z,14.70
2019-04-16T19:19:32.524Z,14.71
2019-04-16T19:22:03.459Z,14.73
2019-04-16T19:24:34.421Z,14.77
2019-04-16T19:27:07.835Z,14.77
2019-04-16T19:29:38.847Z,14.74
2019-04-16T19:35:26.003Z,14.66
2019-04-16T19:38:13.313Z,14.69
2019-04-16T19:40:44.047Z,14.70
2019-04-16T19:43:22.259Z,14.65
2019-04-16T19:45:54.320Z,14.63
2019-04-16T19:48:35.484Z,14.60
2019-04-16T19:50:58.228Z,14.60
2019-04-16T19:55:13.179Z,14.55
2019-04-16T19:56:51.349Z,14.43
2019-04-16T19:59:30.836Z,14.43
2019-04-16T20:02:05.836Z,14.43
2019-04-16T20:04:37.850Z,14.43
2019-04-16T20:07:14.692Z,14.46
2019-04-16T20:09:47.505Z,14.36
2019-04-16T20:12:50.463Z,14.30
2019-04-16T20:15:26.838Z,14.24
2019-04-16T20:18:01.329Z,14.21
2019-04-16T20:20:31.892Z,14.15
2019-04-16T20:23:21.558Z,14.09
2019-04-16T20:26:00.980Z,14.04
2019-04-16T20:28:32.205Z,14.00
2019-04-16T20:31:05.125Z,13.93
2019-04-16T20:33:36.496Z,13.83
2019-04-16T20:36:07.119Z,13.79
2019-04-16T20:38:38.337Z,13.70
2019-04-16T20:41:10.066Z,13.59
2019-04-16T20:43:40.953Z,13.51
2019-04-16T20:46:13.631Z,13.47
2019-04-16T20:48:47.315Z,13.37
2019-04-16T20:54:13.987Z,13.21
2019-04-16T20:56:44.819Z,13.13
2019-04-16T20:59:40.776Z,13.09
2019-04-16T21:02:11.435Z,13.00
2019-04-16T21:04:42.453Z,12.94
2019-04-16T21:07:15.117Z,12.86
2019-04-16T21:09:45.844Z,12.81
2019-04-16T21:12:16.590Z,12.77
2019-04-16T21:14:47.498Z,12.73
2019-04-16T21:17:18.081Z,12.72
2019-04-16T21:19:49.024Z,12.75
2019-04-16T21:25:54.916Z,12.75
2019-04-16T21:28:49.637Z,12.68
2019-04-16T21:31:24.390Z,12.64
2019-04-16T21:34:10.802Z,12.60
2019-04-16T21:37:11.511Z,12.56
2019-04-16T21:39:51.275Z,12.45
2019-04-16T21:42:40.753Z,12.33
2019-04-16T21:45:13.657Z,12.28
2019-04-16T21:47:47.007Z,12.18
2019-04-16T21:50:18.161Z,12.20
2019-04-16T21:52:48.795Z,12.29
2019-04-16T21:55:19.961Z,12.28
2019-04-16T21:57:50.638Z,12.24
2019-04-16T22:00:38.973Z,12.22
2019-04-16T22:03:12.704Z,12.14
2019-04-16T22:06:13.336Z,12.07
2019-04-16T22:08:43.873Z,12.05
2019-04-16T22:11:14.464Z,12.08
2019-04-16T22:13:50.715Z,12.03
2019-04-16T22:16:44.767Z,11.98
2019-04-16T22:19:15.440Z,11.94
2019-04-16T22:21:46.301Z,12.00
2019-04-16T22:24:19.737Z,11.96
2019-04-16T22:26:49.545Z,12.04
2019-04-16T22:29:20.398Z,12.10
2019-04-16T22:31:52.755Z,12.20
2019-04-16T22:34:23.384Z,12.25
2019-04-16T22:36:56.341Z,12.18
2019-04-16T22:39:44.422Z,12.03
2019-04-16T22:42:48.420Z,12.00
2019-04-16T22:45:44.954Z,11.89
2019-04-16T22:48:15.527Z,11.78
2019-04-16T22:50:46.189Z,11.70
2019-04-16T22:53:18.013Z,11.69
2019-04-16T22:55:48.862Z,11.68
2019-04-16T22:58:23.788Z,11.57
2019-04-16T23:00:59.759Z,11.46
2019-04-16T23:03:30.286Z,11.35
2019-04-16T23:06:06.352Z,11.26
2019-04-16T23:08:33.428Z,11.13
2019-04-16T23:11:04.156Z,11.06
2019-04-16T23:13:35.125Z,11.05
2019-04-16T23:16:24.578Z,11.14
2019-04-16T23:18:56.222Z,11.29
2019-04-16T23:21:27.838Z,11.40
2019-04-16T23:23:59.148Z,11.35
2019-04-16T23:26:39.461Z,11.27
2019-04-16T23:29:12.250Z,11.17
2019-04-16T23:31:46.178Z,11.12
2019-04-16T23:34:21.981Z,11.12
2019-04-16T23:36:52.886Z,11.23
2019-04-16T23:39:23.721Z,11.23
2019-04-16T23:41:54.444Z,11.16
2019-04-16T23:44:54.621Z,11.07
2019-04-16T23:47:43.433Z,11.05
2019-04-16T23:50:44.383Z,11.05
2019-04-16T23:53:28.268Z,11.11
2019-04-16T23:56:12.245Z,11.16
2019-04-16T23:58:48.674Z,11.18
